sensor_id;sensor_type;location;lat;lon;timestamp;P1;durP1;ratioP1;P2;durP2;ratioP2
74469;SDS011;62918;55.706;37.816;2023-03-14T00:00:14;5.05;;;2.42;;
74469;SDS011;62918;55.706;37.816;2023-03-14T00:00:46;4.18;;;2.03;;
74469;SDS011;62918;55.706;37.816;2023-03-14T00:01:17;4.72;;;2.10;;
74469;SDS011;62918;55.706;37.816;2023-03-14T00:01:50;5.30;;;2.15;;
74469;SDS011;62918;55.706;37.816;2023-03-14T00:02:20;4.88;;;2.05;;
74469;SDS011;62918;55.706;37.816;2023-03-14T00:02:54;5.85;;;1.80;;
74469;SDS011;62918;55.706;37.816;2023-03-14T00:03:25;3.78;;;1.73;;
74469;SDS011;62918;55.706;37.816;2023-03-14T00:03:55;4.25;;;2.13;;
74469;SDS011;62918;55.706;37.816;2023-03-14T00:04:26;3.95;;;2.00;;
74469;SDS011;62918;55.706;37.816;2023-03-14T00:04:56;7.07;;;2.15;;
74469;SDS011;62918;55.706;37.816;2023-03-14T00:05:27;3.20;;;1.70;;
74469;SDS011;62918;55.706;37.816;2023-03-14T00:06:01;3.83;;;1.67;;
74469;SDS011;62918;55.706;37.816;2023-03-14T00:06:34;4.85;;;1.90;;
74469;SDS011;62918;55.706;37.816;2023-03-14T00:07:05;7.38;;;1.83;;
74469;SDS011;62918;55.706;37.816;2023-03-14T00:07:36;4.60;;;2.03;;
74469;SDS011;62918;55.706;37.816;2023-03-14T00:08:08;5.95;;;1.85;;
74469;SDS011;62918;55.706;37.816;2023-03-14T00:08:39;7.35;;;2.92;;
74469;SDS011;62918;55.706;37.816;2023-03-14T00:09:10;4.53;;;2.17;;
74469;SDS011;62918;55.706;37.816;2023-03-14T00:09:41;4.07;;;1.95;;
74469;SDS011;62918;55.706;37.816;2023-03-14T00:10:12;5.80;;;1.73;;
74469;SDS011;62918;55.706;37.816;2023-03-14T00:10:44;6.10;;;1.95;;
74469;SDS011;62918;55.706;37.816;2023-03-14T00:11:15;4.22;;;1.95;;
74469;SDS011;62918;55.706;37.816;2023-03-14T00:11:48;5.85;;;2.00;;
74469;SDS011;62918;55.706;37.816;2023-03-14T00:12:19;5.10;;;2.17;;
74469;SDS011;62918;55.706;37.816;2023-03-14T00:12:50;5.10;;;3.05;;
74469;SDS011;62918;55.706;37.816;2023-03-14T00:13:20;4.80;;;2.20;;
74469;SDS011;62918;55.706;37.816;2023-03-14T00:13:51;4.30;;;1.88;;
74469;SDS011;62918;55.706;37.816;2023-03-14T00:14:22;6.43;;;1.73;;
74469;SDS011;62918;55.706;37.816;2023-03-14T00:14:53;4.60;;;2.00;;
74469;SDS011;62918;55.706;37.816;2023-03-14T00:15:23;6.00;;;1.60;;
74469;SDS011;62918;55.706;37.816;2023-03-14T00:15:54;6.82;;;1.48;;
74469;SDS011;62918;55.706;37.816;2023-03-14T00:16:25;4.43;;;2.50;;
74469;SDS011;62918;55.706;37.816;2023-03-14T00:16:56;4.03;;;2.13;;
74469;SDS011;62918;55.706;37.816;2023-03-14T00:17:27;4.75;;;1.98;;
74469;SDS011;62918;55.706;37.816;2023-03-14T00:17:58;6.43;;;2.13;;
74469;SDS011;62918;55.706;37.816;2023-03-14T00:18:28;3.88;;;1.90;;
74469;SDS011;62918;55.706;37.816;2023-03-14T00:18:59;3.80;;;2.28;;
74469;SDS011;62918;55.706;37.816;2023-03-14T00:19:29;6.05;;;2.47;;
74469;SDS011;62918;55.706;37.816;2023-03-14T00:20:00;5.55;;;1.80;;
74469;SDS011;62918;55.706;37.816;2023-03-14T00:20:41;4.13;;;2.00;;
74469;SDS011;62918;55.706;37.816;2023-03-14T00:21:11;3.55;;;1.80;;
74469;SDS011;62918;55.706;37.816;2023-03-14T00:21:43;7.32;;;2.00;;
74469;SDS011;62918;55.706;37.816;2023-03-14T00:22:13;4.20;;;2.03;;
74469;SDS011;62918;55.706;37.816;2023-03-14T00:22:44;4.50;;;2.00;;
74469;SDS011;62918;55.706;37.816;2023-03-14T00:23:14;3.63;;;1.75;;
74469;SDS011;62918;55.706;37.816;2023-03-14T00:23:45;5.18;;;2.10;;
74469;SDS011;62918;55.706;37.816;2023-03-14T00:24:16;5.82;;;2.20;;
74469;SDS011;62918;55.706;37.816;2023-03-14T00:24:47;6.28;;;1.75;;
74469;SDS011;62918;55.706;37.816;2023-03-14T00:25:17;5.20;;;2.38;;
74469;SDS011;62918;55.706;37.816;2023-03-14T00:25:48;6.00;;;2.28;;
74469;SDS011;62918;55.706;37.816;2023-03-14T00:26:19;4.50;;;2.00;;
74469;SDS011;62918;55.706;37.816;2023-03-14T00:27:52;5.03;;;1.48;;
74469;SDS011;62918;55.706;37.816;2023-03-14T00:28:22;5.28;;;2.00;;
74469;SDS011;62918;55.706;37.816;2023-03-14T00:28:53;4.38;;;2.10;;
74469;SDS011;62918;55.706;37.816;2023-03-14T00:29:24;4.97;;;1.90;;
74469;SDS011;62918;55.706;37.816;2023-03-14T00:29:54;4.68;;;1.80;;
74469;SDS011;62918;55.706;37.816;2023-03-14T00:30:25;5.40;;;1.55;;
74469;SDS011;62918;55.706;37.816;2023-03-14T00:30:55;4.30;;;1.60;;
74469;SDS011;62918;55.706;37.816;2023-03-14T00:31:26;3.63;;;1.63;;
74469;SDS011;62918;55.706;37.816;2023-03-14T00:31:57;4.13;;;1.90;;
74469;SDS011;62918;55.706;37.816;2023-03-14T00:32:27;3.80;;;1.92;;
74469;SDS011;62918;55.706;37.816;2023-03-14T00:32:58;4.47;;;2.10;;
74469;SDS011;62918;55.706;37.816;2023-03-14T00:33:28;3.42;;;1.60;;
74469;SDS011;62918;55.706;37.816;2023-03-14T00:33:59;4.32;;;2.40;;
74469;SDS011;62918;55.706;37.816;2023-03-14T00:34:30;3.42;;;1.90;;
74469;SDS011;62918;55.706;37.816;2023-03-14T00:35:02;5.72;;;1.90;;
74469;SDS011;62918;55.706;37.816;2023-03-14T00:35:33;3.63;;;1.50;;
74469;SDS011;62918;55.706;37.816;2023-03-14T00:36:07;5.45;;;1.63;;
74469;SDS011;62918;55.706;37.816;2023-03-14T00:36:50;4.82;;;1.83;;
74469;SDS011;62918;55.706;37.816;2023-03-14T00:37:20;3.17;;;1.52;;
74469;SDS011;62918;55.706;37.816;2023-03-14T00:37:51;4.07;;;1.92;;
74469;SDS011;62918;55.706;37.816;2023-03-14T00:38:22;3.80;;;1.70;;
74469;SDS011;62918;55.706;37.816;2023-03-14T00:38:52;5.95;;;1.90;;
74469;SDS011;62918;55.706;37.816;2023-03-14T00:39:23;3.63;;;1.70;;
74469;SDS011;62918;55.706;37.816;2023-03-14T00:39:54;4.65;;;2.45;;
74469;SDS011;62918;55.706;37.816;2023-03-14T00:40:24;4.03;;;2.00;;
74469;SDS011;62918;55.706;37.816;2023-03-14T00:40:55;3.95;;;1.70;;
74469;SDS011;62918;55.706;37.816;2023-03-14T00:41:25;6.18;;;1.92;;
74469;SDS011;62918;55.706;37.816;2023-03-14T00:41:56;3.38;;;1.77;;
74469;SDS011;62918;55.706;37.816;2023-03-14T00:42:26;4.60;;;1.70;;
74469;SDS011;62918;55.706;37.816;2023-03-14T00:42:57;5.57;;;1.50;;
74469;SDS011;62918;55.706;37.816;2023-03-14T00:43:28;4.03;;;1.83;;
74469;SDS011;62918;55.706;37.816;2023-03-14T00:43:58;3.58;;;1.85;;
74469;SDS011;62918;55.706;37.816;2023-03-14T00:44:29;4.35;;;1.92;;
74469;SDS011;62918;55.706;37.816;2023-03-14T00:44:59;4.03;;;1.38;;
74469;SDS011;62918;55.706;37.816;2023-03-14T00:45:30;3.75;;;1.52;;
74469;SDS011;62918;55.706;37.816;2023-03-14T00:46:01;5.63;;;1.50;;
74469;SDS011;62918;55.706;37.816;2023-03-14T00:46:32;4.53;;;1.65;;
74469;SDS011;62918;55.706;37.816;2023-03-14T00:47:02;3.30;;;1.20;;
74469;SDS011;62918;55.706;37.816;2023-03-14T00:47:34;3.85;;;1.55;;
74469;SDS011;62918;55.706;37.816;2023-03-14T00:48:05;3.75;;;1.67;;
74469;SDS011;62918;55.706;37.816;2023-03-14T00:48:36;4.43;;;1.63;;
74469;SDS011;62918;55.706;37.816;2023-03-14T00:49:07;3.95;;;1.52;;
74469;SDS011;62918;55.706;37.816;2023-03-14T00:49:37;5.28;;;1.90;;
74469;SDS011;62918;55.706;37.816;2023-03-14T00:50:08;5.03;;;1.70;;
74469;SDS011;62918;55.706;37.816;2023-03-14T00:50:40;4.30;;;1.70;;
74469;SDS011;62918;55.706;37.816;2023-03-14T00:51:10;4.18;;;1.85;;
74469;SDS011;62918;55.706;37.816;2023-03-14T00:51:43;3.28;;;1.70;;
74469;SDS011;62918;55.706;37.816;2023-03-14T00:52:14;3.38;;;1.58;;
74469;SDS011;62918;55.706;37.816;2023-03-14T00:52:45;3.47;;;1.58;;
74469;SDS011;62918;55.706;37.816;2023-03-14T00:53:18;3.83;;;1.55;;
74469;SDS011;62918;55.706;37.816;2023-03-14T00:53:48;5.80;;;1.67;;
74469;SDS011;62918;55.706;37.816;2023-03-14T00:54:19;4.90;;;1.90;;
74469;SDS011;62918;55.706;37.816;2023-03-14T00:54:50;3.67;;;1.73;;
74469;SDS011;62918;55.706;37.816;2023-03-14T00:55:21;6.25;;;2.17;;
74469;SDS011;62918;55.706;37.816;2023-03-14T00:55:52;3.95;;;1.90;;
74469;SDS011;62918;55.706;37.816;2023-03-14T00:56:22;3.75;;;1.50;;
74469;SDS011;62918;55.706;37.816;2023-03-14T00:56:53;2.88;;;1.50;;
74469;SDS011;62918;55.706;37.816;2023-03-14T00:57:23;4.80;;;1.33;;
74469;SDS011;62918;55.706;37.816;2023-03-14T00:57:54;3.67;;;1.77;;
74469;SDS011;62918;55.706;37.816;2023-03-14T00:58:27;3.92;;;1.38;;
74469;SDS011;62918;55.706;37.816;2023-03-14T00:58:57;3.78;;;1.63;;
74469;SDS011;62918;55.706;37.816;2023-03-14T00:59:28;3.25;;;1.52;;
74469;SDS011;62918;55.706;37.816;2023-03-14T00:59:58;5.68;;;1.58;;
74469;SDS011;62918;55.706;37.816;2023-03-14T01:00:29;4.75;;;1.70;;
74469;SDS011;62918;55.706;37.816;2023-03-14T01:01:04;3.80;;;1.20;;
74469;SDS011;62918;55.706;37.816;2023-03-14T01:01:46;3.90;;;1.42;;
74469;SDS011;62918;55.706;37.816;2023-03-14T01:02:16;3.55;;;1.70;;
74469;SDS011;62918;55.706;37.816;2023-03-14T01:02:47;3.33;;;1.45;;
74469;SDS011;62918;55.706;37.816;2023-03-14T01:03:17;2.85;;;1.70;;
74469;SDS011;62918;55.706;37.816;2023-03-14T01:03:51;2.60;;;1.35;;
74469;SDS011;62918;55.706;37.816;2023-03-14T01:04:23;4.57;;;1.50;;
74469;SDS011;62918;55.706;37.816;2023-03-14T01:04:53;3.08;;;1.60;;
74469;SDS011;62918;55.706;37.816;2023-03-14T01:05:24;7.15;;;2.35;;
74469;SDS011;62918;55.706;37.816;2023-03-14T01:06:01;4.80;;;1.05;;
74469;SDS011;62918;55.706;37.816;2023-03-14T01:06:37;4.60;;;1.88;;
74469;SDS011;62918;55.706;37.816;2023-03-14T01:07:08;2.92;;;1.60;;
74469;SDS011;62918;55.706;37.816;2023-03-14T01:07:39;4.15;;;1.55;;
74469;SDS011;62918;55.706;37.816;2023-03-14T01:08:10;4.22;;;1.70;;
74469;SDS011;62918;55.706;37.816;2023-03-14T01:08:42;5.57;;;1.50;;
74469;SDS011;62918;55.706;37.816;2023-03-14T01:10:15;4.60;;;1.35;;
74469;SDS011;62918;55.706;37.816;2023-03-14T01:10:46;3.35;;;1.70;;
74469;SDS011;62918;55.706;37.816;2023-03-14T01:11:26;6.25;;;1.27;;
74469;SDS011;62918;55.706;37.816;2023-03-14T01:11:59;4.03;;;1.45;;
74469;SDS011;62918;55.706;37.816;2023-03-14T01:12:30;3.28;;;1.23;;
74469;SDS011;62918;55.706;37.816;2023-03-14T01:13:00;3.83;;;1.38;;
74469;SDS011;62918;55.706;37.816;2023-03-14T01:13:31;4.53;;;1.70;;
74469;SDS011;62918;55.706;37.816;2023-03-14T01:14:02;3.55;;;1.10;;
74469;SDS011;62918;55.706;37.816;2023-03-14T01:14:33;3.58;;;1.98;;
74469;SDS011;62918;55.706;37.816;2023-03-14T01:15:04;4.15;;;1.52;;
74469;SDS011;62918;55.706;37.816;2023-03-14T01:15:36;4.32;;;1.88;;
74469;SDS011;62918;55.706;37.816;2023-03-14T01:16:08;4.35;;;1.45;;
74469;SDS011;62918;55.706;37.816;2023-03-14T01:16:40;3.45;;;1.35;;
74469;SDS011;62918;55.706;37.816;2023-03-14T01:17:11;3.63;;;1.40;;
74469;SDS011;62918;55.706;37.816;2023-03-14T01:17:42;4.38;;;1.35;;
74469;SDS011;62918;55.706;37.816;2023-03-14T01:18:12;3.50;;;1.70;;
74469;SDS011;62918;55.706;37.816;2023-03-14T01:18:43;4.20;;;1.70;;
74469;SDS011;62918;55.706;37.816;2023-03-14T01:19:15;4.82;;;1.58;;
74469;SDS011;62918;55.706;37.816;2023-03-14T01:19:45;7.03;;;1.80;;
74469;SDS011;62918;55.706;37.816;2023-03-14T01:20:16;2.95;;;1.10;;
74469;SDS011;62918;55.706;37.816;2023-03-14T01:20:47;3.67;;;1.33;;
74469;SDS011;62918;55.706;37.816;2023-03-14T01:21:24;3.17;;;1.50;;
74469;SDS011;62918;55.706;37.816;2023-03-14T01:21:58;3.42;;;1.38;;
74469;SDS011;62918;55.706;37.816;2023-03-14T01:22:28;2.47;;;1.23;;
74469;SDS011;62918;55.706;37.816;2023-03-14T01:22:59;4.43;;;1.30;;
74469;SDS011;62918;55.706;37.816;2023-03-14T01:23:29;3.60;;;1.27;;
74469;SDS011;62918;55.706;37.816;2023-03-14T01:24:01;4.72;;;1.80;;
74469;SDS011;62918;55.706;37.816;2023-03-14T01:25:03;3.35;;;1.42;;
74469;SDS011;62918;55.706;37.816;2023-03-14T01:25:34;4.00;;;1.33;;
74469;SDS011;62918;55.706;37.816;2023-03-14T01:26:11;2.78;;;1.25;;
74469;SDS011;62918;55.706;37.816;2023-03-14T01:26:44;5.57;;;1.60;;
74469;SDS011;62918;55.706;37.816;2023-03-14T01:27:14;2.33;;;1.08;;
74469;SDS011;62918;55.706;37.816;2023-03-14T01:27:45;3.15;;;1.27;;
74469;SDS011;62918;55.706;37.816;2023-03-14T01:28:18;3.70;;;1.25;;
74469;SDS011;62918;55.706;37.816;2023-03-14T01:28:49;3.92;;;1.10;;
74469;SDS011;62918;55.706;37.816;2023-03-14T01:29:21;3.45;;;1.05;;
74469;SDS011;62918;55.706;37.816;2023-03-14T01:29:51;4.53;;;1.98;;
74469;SDS011;62918;55.706;37.816;2023-03-14T01:30:22;2.90;;;1.33;;
74469;SDS011;62918;55.706;37.816;2023-03-14T01:30:52;6.55;;;1.95;;
74469;SDS011;62918;55.706;37.816;2023-03-14T01:31:23;3.00;;;1.42;;
74469;SDS011;62918;55.706;37.816;2023-03-14T01:31:54;3.55;;;1.85;;
74469;SDS011;62918;55.706;37.816;2023-03-14T01:32:25;3.90;;;1.25;;
74469;SDS011;62918;55.706;37.816;2023-03-14T01:32:55;3.17;;;1.98;;
74469;SDS011;62918;55.706;37.816;2023-03-14T01:33:26;4.03;;;1.60;;
74469;SDS011;62918;55.706;37.816;2023-03-14T01:33:56;5.72;;;1.88;;
74469;SDS011;62918;55.706;37.816;2023-03-14T01:34:27;4.45;;;1.10;;
74469;SDS011;62918;55.706;37.816;2023-03-14T01:34:58;4.22;;;1.60;;
74469;SDS011;62918;55.706;37.816;2023-03-14T01:35:28;3.78;;;1.70;;
74469;SDS011;62918;55.706;37.816;2023-03-14T01:35:59;5.30;;;1.45;;
74469;SDS011;62918;55.706;37.816;2023-03-14T01:36:32;2.47;;;1.15;;
74469;SDS011;62918;55.706;37.816;2023-03-14T01:37:02;4.50;;;1.60;;
74469;SDS011;62918;55.706;37.816;2023-03-14T01:37:33;3.13;;;1.20;;
74469;SDS011;62918;55.706;37.816;2023-03-14T01:38:03;4.88;;;1.10;;
74469;SDS011;62918;55.706;37.816;2023-03-14T01:38:35;3.03;;;1.27;;
74469;SDS011;62918;55.706;37.816;2023-03-14T01:39:06;6.05;;;1.50;;
74469;SDS011;62918;55.706;37.816;2023-03-14T01:39:38;4.32;;;1.55;;
74469;SDS011;62918;55.706;37.816;2023-03-14T01:40:10;3.28;;;1.25;;
74469;SDS011;62918;55.706;37.816;2023-03-14T01:40:44;2.88;;;1.00;;
74469;SDS011;62918;55.706;37.816;2023-03-14T01:41:16;3.88;;;1.63;;
74469;SDS011;62918;55.706;37.816;2023-03-14T01:41:50;2.83;;;0.98;;
74469;SDS011;62918;55.706;37.816;2023-03-14T01:42:21;5.68;;;1.58;;
74469;SDS011;62918;55.706;37.816;2023-03-14T01:42:58;2.65;;;1.38;;
74469;SDS011;62918;55.706;37.816;2023-03-14T01:43:36;3.22;;;1.25;;
74469;SDS011;62918;55.706;37.816;2023-03-14T01:44:10;3.55;;;1.70;;
74469;SDS011;62918;55.706;37.816;2023-03-14T01:46:37;3.80;;;1.95;;
74469;SDS011;62918;55.706;37.816;2023-03-14T01:47:12;4.43;;;1.48;;
74469;SDS011;62918;55.706;37.816;2023-03-14T01:47:42;4.13;;;1.40;;
74469;SDS011;62918;55.706;37.816;2023-03-14T01:48:13;4.95;;;1.65;;
74469;SDS011;62918;55.706;37.816;2023-03-14T01:49:38;4.40;;;1.63;;
74469;SDS011;62918;55.706;37.816;2023-03-14T01:50:10;2.85;;;1.80;;
74469;SDS011;62918;55.706;37.816;2023-03-14T01:50:42;3.47;;;1.65;;
74469;SDS011;62918;55.706;37.816;2023-03-14T01:51:35;3.20;;;1.33;;
74469;SDS011;62918;55.706;37.816;2023-03-14T01:52:18;4.53;;;1.27;;
74469;SDS011;62918;55.706;37.816;2023-03-14T01:52:55;3.28;;;1.40;;
74469;SDS011;62918;55.706;37.816;2023-03-14T01:53:25;4.32;;;1.65;;
74469;SDS011;62918;55.706;37.816;2023-03-14T01:54:00;4.40;;;1.60;;
74469;SDS011;62918;55.706;37.816;2023-03-14T01:54:51;3.40;;;1.75;;
74469;SDS011;62918;55.706;37.816;2023-03-14T01:55:25;3.40;;;1.42;;
74469;SDS011;62918;55.706;37.816;2023-03-14T01:55:56;2.70;;;1.73;;
74469;SDS011;62918;55.706;37.816;2023-03-14T01:56:27;4.93;;;1.67;;
74469;SDS011;62918;55.706;37.816;2023-03-14T01:57:03;5.93;;;2.00;;
74469;SDS011;62918;55.706;37.816;2023-03-14T01:57:48;4.78;;;2.10;;
74469;SDS011;62918;55.706;37.816;2023-03-14T01:58:23;3.20;;;1.70;;
74469;SDS011;62918;55.706;37.816;2023-03-14T01:58:57;5.20;;;1.80;;
74469;SDS011;62918;55.706;37.816;2023-03-14T01:59:30;2.88;;;1.23;;
74469;SDS011;62918;55.706;37.816;2023-03-14T02:00:41;2.90;;;1.67;;
74469;SDS011;62918;55.706;37.816;2023-03-14T02:01:13;3.38;;;1.42;;
74469;SDS011;62918;55.706;37.816;2023-03-14T02:01:48;5.55;;;1.80;;
74469;SDS011;62918;55.706;37.816;2023-03-14T02:02:21;3.70;;;1.30;;
74469;SDS011;62918;55.706;37.816;2023-03-14T02:03:02;3.13;;;2.30;;
74469;SDS011;62918;55.706;37.816;2023-03-14T02:03:44;3.50;;;1.50;;
74469;SDS011;62918;55.706;37.816;2023-03-14T02:04:20;3.35;;;1.83;;
74469;SDS011;62918;55.706;37.816;2023-03-14T02:04:51;5.05;;;1.88;;
74469;SDS011;62918;55.706;37.816;2023-03-14T02:05:25;3.08;;;1.63;;
74469;SDS011;62918;55.706;37.816;2023-03-14T02:06:01;3.92;;;1.42;;
74469;SDS011;62918;55.706;37.816;2023-03-14T02:06:44;4.32;;;1.65;;
74469;SDS011;62918;55.706;37.816;2023-03-14T02:07:24;5.60;;;1.63;;
74469;SDS011;62918;55.706;37.816;2023-03-14T02:08:02;3.88;;;1.70;;
74469;SDS011;62918;55.706;37.816;2023-03-14T02:08:35;3.80;;;2.00;;
74469;SDS011;62918;55.706;37.816;2023-03-14T02:09:09;4.53;;;1.80;;
74469;SDS011;62918;55.706;37.816;2023-03-14T02:09:40;3.33;;;1.92;;
74469;SDS011;62918;55.706;37.816;2023-03-14T02:10:12;4.18;;;2.50;;
74469;SDS011;62918;55.706;37.816;2023-03-14T02:10:45;4.70;;;2.10;;
74469;SDS011;62918;55.706;37.816;2023-03-14T02:11:18;4.22;;;1.80;;
74469;SDS011;62918;55.706;37.816;2023-03-14T02:11:49;3.22;;;1.92;;
74469;SDS011;62918;55.706;37.816;2023-03-14T02:12:21;4.00;;;2.00;;
74469;SDS011;62918;55.706;37.816;2023-03-14T02:12:52;4.63;;;2.08;;
74469;SDS011;62918;55.706;37.816;2023-03-14T02:13:26;4.22;;;2.28;;
74469;SDS011;62918;55.706;37.816;2023-03-14T02:13:57;3.63;;;2.13;;
74469;SDS011;62918;55.706;37.816;2023-03-14T02:14:32;4.50;;;1.98;;
74469;SDS011;62918;55.706;37.816;2023-03-14T02:15:04;3.42;;;2.10;;
74469;SDS011;62918;55.706;37.816;2023-03-14T02:15:37;3.25;;;1.80;;
74469;SDS011;62918;55.706;37.816;2023-03-14T02:16:08;3.80;;;1.70;;
74469;SDS011;62918;55.706;37.816;2023-03-14T02:16:39;5.63;;;1.98;;
74469;SDS011;62918;55.706;37.816;2023-03-14T02:17:10;5.55;;;2.33;;
74469;SDS011;62918;55.706;37.816;2023-03-14T02:17:40;4.55;;;1.70;;
74469;SDS011;62918;55.706;37.816;2023-03-14T02:18:14;5.65;;;2.25;;
74469;SDS011;62918;55.706;37.816;2023-03-14T02:18:46;4.82;;;2.40;;
74469;SDS011;62918;55.706;37.816;2023-03-14T02:19:17;4.90;;;2.30;;
74469;SDS011;62918;55.706;37.816;2023-03-14T02:20:07;7.93;;;2.25;;
74469;SDS011;62918;55.706;37.816;2023-03-14T02:21:01;3.97;;;1.85;;
74469;SDS011;62918;55.706;37.816;2023-03-14T02:22:14;5.18;;;2.38;;
74469;SDS011;62918;55.706;37.816;2023-03-14T02:22:46;3.47;;;1.90;;
74469;SDS011;62918;55.706;37.816;2023-03-14T02:23:20;5.13;;;2.15;;
74469;SDS011;62918;55.706;37.816;2023-03-14T02:25:27;3.78;;;2.30;;
74469;SDS011;62918;55.706;37.816;2023-03-14T02:26:32;4.70;;;1.88;;
74469;SDS011;62918;55.706;37.816;2023-03-14T02:27:13;3.97;;;1.98;;
74469;SDS011;62918;55.706;37.816;2023-03-14T02:27:50;3.42;;;1.98;;
74469;SDS011;62918;55.706;37.816;2023-03-14T02:28:21;3.10;;;2.35;;
74469;SDS011;62918;55.706;37.816;2023-03-14T02:28:52;4.93;;;2.13;;
74469;SDS011;62918;55.706;37.816;2023-03-14T02:29:23;5.93;;;2.47;;
74469;SDS011;62918;55.706;37.816;2023-03-14T02:29:58;5.10;;;2.17;;
74469;SDS011;62918;55.706;37.816;2023-03-14T02:30:32;4.35;;;1.95;;
74469;SDS011;62918;55.706;37.816;2023-03-14T02:31:03;4.80;;;2.55;;
74469;SDS011;62918;55.706;37.816;2023-03-14T02:31:34;4.93;;;2.38;;
74469;SDS011;62918;55.706;37.816;2023-03-14T02:32:05;5.03;;;1.98;;
74469;SDS011;62918;55.706;37.816;2023-03-14T02:32:38;3.83;;;2.30;;
74469;SDS011;62918;55.706;37.816;2023-03-14T02:33:12;5.50;;;2.95;;
74469;SDS011;62918;55.706;37.816;2023-03-14T02:33:46;5.57;;;3.05;;
74469;SDS011;62918;55.706;37.816;2023-03-14T02:34:17;5.43;;;2.33;;
74469;SDS011;62918;55.706;37.816;2023-03-14T02:34:49;4.60;;;2.50;;
74469;SDS011;62918;55.706;37.816;2023-03-14T02:35:26;5.60;;;2.53;;
74469;SDS011;62918;55.706;37.816;2023-03-14T02:36:00;4.55;;;2.40;;
74469;SDS011;62918;55.706;37.816;2023-03-14T02:36:34;5.03;;;2.80;;
74469;SDS011;62918;55.706;37.816;2023-03-14T02:37:05;5.35;;;2.72;;
74469;SDS011;62918;55.706;37.816;2023-03-14T02:37:41;4.65;;;2.70;;
74469;SDS011;62918;55.706;37.816;2023-03-14T02:39:38;6.13;;;2.60;;
74469;SDS011;62918;55.706;37.816;2023-03-14T02:40:10;5.72;;;2.25;;
74469;SDS011;62918;55.706;37.816;2023-03-14T02:40:42;4.53;;;2.67;;
74469;SDS011;62918;55.706;37.816;2023-03-14T02:41:13;4.30;;;2.47;;
74469;SDS011;62918;55.706;37.816;2023-03-14T02:41:45;6.32;;;3.15;;
74469;SDS011;62918;55.706;37.816;2023-03-14T02:42:16;5.78;;;2.40;;
74469;SDS011;62918;55.706;37.816;2023-03-14T02:42:46;3.67;;;2.42;;
74469;SDS011;62918;55.706;37.816;2023-03-14T02:43:17;5.35;;;3.17;;
74469;SDS011;62918;55.706;37.816;2023-03-14T02:43:48;5.35;;;2.25;;
74469;SDS011;62918;55.706;37.816;2023-03-14T02:44:19;4.90;;;2.53;;
74469;SDS011;62918;55.706;37.816;2023-03-14T02:45:42;5.57;;;2.72;;
74469;SDS011;62918;55.706;37.816;2023-03-14T02:46:18;3.97;;;2.58;;
74469;SDS011;62918;55.706;37.816;2023-03-14T02:46:51;5.05;;;2.88;;
74469;SDS011;62918;55.706;37.816;2023-03-14T02:47:22;5.85;;;3.10;;
74469;SDS011;62918;55.706;37.816;2023-03-14T02:47:59;3.60;;;2.30;;
74469;SDS011;62918;55.706;37.816;2023-03-14T02:48:37;6.82;;;3.28;;
74469;SDS011;62918;55.706;37.816;2023-03-14T02:49:12;5.15;;;2.60;;
74469;SDS011;62918;55.706;37.816;2023-03-14T02:49:44;8.57;;;3.28;;
74469;SDS011;62918;55.706;37.816;2023-03-14T02:50:17;4.47;;;2.92;;
74469;SDS011;62918;55.706;37.816;2023-03-14T02:50:54;4.70;;;2.88;;
74469;SDS011;62918;55.706;37.816;2023-03-14T02:51:26;5.07;;;2.70;;
74469;SDS011;62918;55.706;37.816;2023-03-14T02:51:58;5.30;;;2.70;;
74469;SDS011;62918;55.706;37.816;2023-03-14T02:52:29;7.10;;;2.45;;
74469;SDS011;62918;55.706;37.816;2023-03-14T02:53:00;5.80;;;3.25;;
74469;SDS011;62918;55.706;37.816;2023-03-14T02:53:32;5.88;;;3.35;;
74469;SDS011;62918;55.706;37.816;2023-03-14T02:54:04;6.20;;;3.28;;
74469;SDS011;62918;55.706;37.816;2023-03-14T02:54:34;7.15;;;3.25;;
74469;SDS011;62918;55.706;37.816;2023-03-14T02:55:05;4.10;;;2.42;;
74469;SDS011;62918;55.706;37.816;2023-03-14T02:55:36;6.57;;;2.83;;
74469;SDS011;62918;55.706;37.816;2023-03-14T02:56:07;8.35;;;2.70;;
74469;SDS011;62918;55.706;37.816;2023-03-14T02:56:38;6.25;;;3.10;;
74469;SDS011;62918;55.706;37.816;2023-03-14T02:57:09;6.53;;;2.78;;
74469;SDS011;62918;55.706;37.816;2023-03-14T02:57:39;6.82;;;3.47;;
74469;SDS011;62918;55.706;37.816;2023-03-14T02:58:10;4.85;;;2.90;;
74469;SDS011;62918;55.706;37.816;2023-03-14T02:58:40;5.15;;;3.15;;
74469;SDS011;62918;55.706;37.816;2023-03-14T02:59:11;5.38;;;3.08;;
74469;SDS011;62918;55.706;37.816;2023-03-14T02:59:41;5.22;;;3.40;;
74469;SDS011;62918;55.706;37.816;2023-03-14T03:00:12;5.93;;;3.28;;
74469;SDS011;62918;55.706;37.816;2023-03-14T03:00:43;6.20;;;3.00;;
74469;SDS011;62918;55.706;37.816;2023-03-14T03:01:13;4.80;;;2.45;;
74469;SDS011;62918;55.706;37.816;2023-03-14T03:01:44;5.57;;;2.90;;
74469;SDS011;62918;55.706;37.816;2023-03-14T03:02:15;5.95;;;2.95;;
74469;SDS011;62918;55.706;37.816;2023-03-14T03:02:45;4.68;;;2.88;;
74469;SDS011;62918;55.706;37.816;2023-03-14T03:03:16;4.70;;;2.63;;
74469;SDS011;62918;55.706;37.816;2023-03-14T03:03:47;4.93;;;3.15;;
74469;SDS011;62918;55.706;37.816;2023-03-14T03:04:18;4.78;;;3.42;;
74469;SDS011;62918;55.706;37.816;2023-03-14T03:04:48;6.38;;;2.83;;
74469;SDS011;62918;55.706;37.816;2023-03-14T03:05:19;6.00;;;3.50;;
74469;SDS011;62918;55.706;37.816;2023-03-14T03:05:50;6.03;;;3.33;;
74469;SDS011;62918;55.706;37.816;2023-03-14T03:06:21;4.68;;;2.90;;
74469;SDS011;62918;55.706;37.816;2023-03-14T03:06:52;6.45;;;3.30;;
74469;SDS011;62918;55.706;37.816;2023-03-14T03:07:22;4.50;;;2.80;;
74469;SDS011;62918;55.706;37.816;2023-03-14T03:07:53;6.93;;;3.60;;
74469;SDS011;62918;55.706;37.816;2023-03-14T03:08:25;6.30;;;3.60;;
74469;SDS011;62918;55.706;37.816;2023-03-14T03:08:57;5.05;;;3.40;;
74469;SDS011;62918;55.706;37.816;2023-03-14T03:09:27;7.45;;;3.53;;
74469;SDS011;62918;55.706;37.816;2023-03-14T03:09:58;6.85;;;3.35;;
74469;SDS011;62918;55.706;37.816;2023-03-14T03:10:29;6.28;;;3.10;;
74469;SDS011;62918;55.706;37.816;2023-03-14T03:11:01;5.38;;;3.08;;
74469;SDS011;62918;55.706;37.816;2023-03-14T03:11:32;5.63;;;3.25;;
74469;SDS011;62918;55.706;37.816;2023-03-14T03:12:03;6.82;;;3.22;;
74469;SDS011;62918;55.706;37.816;2023-03-14T03:12:33;6.35;;;3.33;;
74469;SDS011;62918;55.706;37.816;2023-03-14T03:13:04;5.03;;;3.47;;
74469;SDS011;62918;55.706;37.816;2023-03-14T03:13:34;7.50;;;3.20;;
74469;SDS011;62918;55.706;37.816;2023-03-14T03:14:05;5.88;;;3.20;;
74469;SDS011;62918;55.706;37.816;2023-03-14T03:14:36;4.45;;;3.33;;
74469;SDS011;62918;55.706;37.816;2023-03-14T03:15:07;6.38;;;3.55;;
74469;SDS011;62918;55.706;37.816;2023-03-14T03:15:38;6.05;;;3.67;;
74469;SDS011;62918;55.706;37.816;2023-03-14T03:16:09;6.25;;;3.38;;
74469;SDS011;62918;55.706;37.816;2023-03-14T03:16:40;5.78;;;3.10;;
74469;SDS011;62918;55.706;37.816;2023-03-14T03:17:10;7.00;;;3.22;;
74469;SDS011;62918;55.706;37.816;2023-03-14T03:17:41;6.05;;;3.63;;
74469;SDS011;62918;55.706;37.816;2023-03-14T03:18:12;6.68;;;3.20;;
74469;SDS011;62918;55.706;37.816;2023-03-14T03:18:42;5.88;;;3.25;;
74469;SDS011;62918;55.706;37.816;2023-03-14T03:19:13;7.53;;;3.38;;
74469;SDS011;62918;55.706;37.816;2023-03-14T03:19:44;6.68;;;3.67;;
74469;SDS011;62918;55.706;37.816;2023-03-14T03:20:14;6.80;;;3.70;;
74469;SDS011;62918;55.706;37.816;2023-03-14T03:20:45;5.93;;;3.90;;
74469;SDS011;62918;55.706;37.816;2023-03-14T03:21:16;6.10;;;3.65;;
74469;SDS011;62918;55.706;37.816;2023-03-14T03:21:47;8.65;;;3.92;;